sensor_id;sensor_type;location;lat;lon;timestamp;temperature;humidity
25128;DHT22;13107;51.304;6.866;2024-01-07T00:02:11;2.70;99.90
25128;DHT22;13107;51.304;6.866;2024-01-07T00:06:13;2.60;99.90
25128;DHT22;13107;51.304;6.866;2024-01-07T00:10:14;2.60;99.90
25128;DHT22;13107;51.304;6.866;2024-01-07T00:14:16;2.50;99.90
25128;DHT22;13107;51.304;6.866;2024-01-07T00:18:18;2.70;99.90
25128;DHT22;13107;51.304;6.866;2024-01-07T00:22:20;2.70;99.90
25128;DHT22;13107;51.304;6.866;2024-01-07T00:26:22;2.60;99.90
25128;DHT22;13107;51.304;6.866;2024-01-07T00:30:23;2.60;99.90
25128;DHT22;13107;51.304;6.866;2024-01-07T00:34:25;2.60;99.90
25128;DHT22;13107;51.304;6.866;2024-01-07T00:38:27;2.60;99.90
25128;DHT22;13107;51.304;6.866;2024-01-07T00:42:29;2.70;99.90
25128;DHT22;13107;51.304;6.866;2024-01-07T00:46:31;2.60;99.90
25128;DHT22;13107;51.304;6.866;2024-01-07T00:50:33;2.70;99.90
25128;DHT22;13107;51.304;6.866;2024-01-07T00:54:35;2.70;99.90
25128;DHT22;13107;51.304;6.866;2024-01-07T00:58:36;2.60;99.90
25128;DHT22;13107;51.304;6.866;2024-01-07T01:02:39;2.70;99.90
25128;DHT22;13107;51.304;6.866;2024-01-07T01:06:41;2.60;99.90
25128;DHT22;13107;51.304;6.866;2024-01-07T01:10:42;2.60;99.90
25128;DHT22;13107;51.304;6.866;2024-01-07T01:14:44;2.70;99.90
25128;DHT22;13107;51.304;6.866;2024-01-07T01:18:46;2.60;99.90
25128;DHT22;13107;51.304;6.866;2024-01-07T01:22:48;2.50;99.90
25128;DHT22;13107;51.304;6.866;2024-01-07T01:26:50;2.40;99.90
25128;DHT22;13107;51.304;6.866;2024-01-07T01:30:51;2.50;99.90
25128;DHT22;13107;51.304;6.866;2024-01-07T01:34:53;2.40;99.90
25128;DHT22;13107;51.304;6.866;2024-01-07T01:38:55;2.40;99.90
25128;DHT22;13107;51.304;6.866;2024-01-07T01:42:57;2.40;99.90
25128;DHT22;13107;51.304;6.866;2024-01-07T01:46:59;2.40;99.90
25128;DHT22;13107;51.304;6.866;2024-01-07T01:51:02;2.40;99.90
25128;DHT22;13107;51.304;6.866;2024-01-07T01:55:04;2.40;99.90
25128;DHT22;13107;51.304;6.866;2024-01-07T01:59:07;2.40;99.90
25128;DHT22;13107;51.304;6.866;2024-01-07T02:03:09;2.40;99.90
25128;DHT22;13107;51.304;6.866;2024-01-07T02:07:11;2.40;99.90
25128;DHT22;13107;51.304;6.866;2024-01-07T02:11:17;2.40;99.90
25128;DHT22;13107;51.304;6.866;2024-01-07T02:15:19;2.40;99.90
25128;DHT22;13107;51.304;6.866;2024-01-07T02:19:21;2.40;99.90
25128;DHT22;13107;51.304;6.866;2024-01-07T02:23:23;2.40;99.90
25128;DHT22;13107;51.304;6.866;2024-01-07T02:27:25;2.40;99.90
25128;DHT22;13107;51.304;6.866;2024-01-07T02:31:27;2.40;99.90
25128;DHT22;13107;51.304;6.866;2024-01-07T02:35:29;2.40;99.90
25128;DHT22;13107;51.304;6.866;2024-01-07T02:39:30;2.40;99.90
25128;DHT22;13107;51.304;6.866;2024-01-07T02:43:32;2.30;99.90
25128;DHT22;13107;51.304;6.866;2024-01-07T02:47:35;2.30;99.90
25128;DHT22;13107;51.304;6.866;2024-01-07T02:51:37;2.10;99.90
25128;DHT22;13107;51.304;6.866;2024-01-07T02:55:38;2.10;99.90
25128;DHT22;13107;51.304;6.866;2024-01-07T02:59:40;2.10;99.90
25128;DHT22;13107;51.304;6.866;2024-01-07T03:03:42;2.10;99.90
25128;DHT22;13107;51.304;6.866;2024-01-07T03:07:44;2.10;99.90
25128;DHT22;13107;51.304;6.866;2024-01-07T03:11:45;2.20;99.90
25128;DHT22;13107;51.304;6.866;2024-01-07T03:15:47;2.20;99.90
25128;DHT22;13107;51.304;6.866;2024-01-07T03:19:49;2.20;99.90
25128;DHT22;13107;51.304;6.866;2024-01-07T03:23:51;2.10;99.90
25128;DHT22;13107;51.304;6.866;2024-01-07T03:27:52;2.00;99.90
25128;DHT22;13107;51.304;6.866;2024-01-07T03:31:54;2.00;99.90
25128;DHT22;13107;51.304;6.866;2024-01-07T03:35:56;1.90;99.90
25128;DHT22;13107;51.304;6.866;2024-01-07T03:39:58;1.90;99.90
25128;DHT22;13107;51.304;6.866;2024-01-07T03:44:00;1.90;99.90
25128;DHT22;13107;51.304;6.866;2024-01-07T03:48:01;1.90;99.90
25128;DHT22;13107;51.304;6.866;2024-01-07T03:52:05;2.10;99.90
25128;DHT22;13107;51.304;6.866;2024-01-07T03:56:07;1.90;99.90
25128;DHT22;13107;51.304;6.866;2024-01-07T04:00:09;1.90;99.90
25128;DHT22;13107;51.304;6.866;2024-01-07T04:04:11;1.90;99.90
25128;DHT22;13107;51.304;6.866;2024-01-07T04:08:14;1.80;99.90
25128;DHT22;13107;51.304;6.866;2024-01-07T04:12:19;1.80;99.90
25128;DHT22;13107;51.304;6.866;2024-01-07T04:16:21;1.80;99.90
25128;DHT22;13107;51.304;6.866;2024-01-07T04:20:23;1.80;99.90
25128;DHT22;13107;51.304;6.866;2024-01-07T04:24:25;1.60;99.90
25128;DHT22;13107;51.304;6.866;2024-01-07T04:28:27;1.60;99.90
25128;DHT22;13107;51.304;6.866;2024-01-07T04:32:29;1.60;99.90
25128;DHT22;13107;51.304;6.866;2024-01-07T04:36:30;1.50;99.90
25128;DHT22;13107;51.304;6.866;2024-01-07T04:40:32;1.50;99.90
25128;DHT22;13107;51.304;6.866;2024-01-07T04:44:34;1.50;99.90
25128;DHT22;13107;51.304;6.866;2024-01-07T04:48:36;1.50;99.90
25128;DHT22;13107;51.304;6.866;2024-01-07T04:52:38;1.50;99.90
25128;DHT22;13107;51.304;6.866;2024-01-07T04:56:40;1.50;99.90
25128;DHT22;13107;51.304;6.866;2024-01-07T05:00:41;1.40;99.90
25128;DHT22;13107;51.304;6.866;2024-01-07T05:04:43;1.50;99.90
25128;DHT22;13107;51.304;6.866;2024-01-07T05:08:45;1.40;99.90
25128;DHT22;13107;51.304;6.866;2024-01-07T05:12:47;1.40;99.90
25128;DHT22;13107;51.304;6.866;2024-01-07T05:16:49;1.40;99.90
25128;DHT22;13107;51.304;6.866;2024-01-07T05:20:51;1.40;99.90
25128;DHT22;13107;51.304;6.866;2024-01-07T05:24:52;1.40;99.90
25128;DHT22;13107;51.304;6.866;2024-01-07T05:28:54;1.40;99.90
25128;DHT22;13107;51.304;6.866;2024-01-07T05:32:56;1.30;99.90
25128;DHT22;13107;51.304;6.866;2024-01-07T05:36:58;1.30;99.90
25128;DHT22;13107;51.304;6.866;2024-01-07T05:41:01;1.30;99.90
25128;DHT22;13107;51.304;6.866;2024-01-07T05:45:03;1.30;99.90
25128;DHT22;13107;51.304;6.866;2024-01-07T05:49:04;1.20;99.90
25128;DHT22;13107;51.304;6.866;2024-01-07T05:53:06;1.30;99.90
25128;DHT22;13107;51.304;6.866;2024-01-07T05:57:08;1.30;99.90
25128;DHT22;13107;51.304;6.866;2024-01-07T06:01:10;1.20;99.90
25128;DHT22;13107;51.304;6.866;2024-01-07T06:05:12;1.30;99.90
25128;DHT22;13107;51.304;6.866;2024-01-07T06:09:14;1.30;99.90
25128;DHT22;13107;51.304;6.866;2024-01-07T06:13:16;1.30;99.90
25128;DHT22;13107;51.304;6.866;2024-01-07T06:17:18;1.40;99.90
25128;DHT22;13107;51.304;6.866;2024-01-07T06:21:19;1.40;99.90
25128;DHT22;13107;51.304;6.866;2024-01-07T06:25:21;1.30;99.90
25128;DHT22;13107;51.304;6.866;2024-01-07T06:29:23;1.40;99.90
25128;DHT22;13107;51.304;6.866;2024-01-07T06:33:25;1.40;99.90
25128;DHT22;13107;51.304;6.866;2024-01-07T06:37:27;1.50;99.90
25128;DHT22;13107;51.304;6.866;2024-01-07T06:41:30;1.30;99.90
25128;DHT22;13107;51.304;6.866;2024-01-07T06:45:32;1.30;99.90
25128;DHT22;13107;51.304;6.866;2024-01-07T06:49:34;1.30;99.90
25128;DHT22;13107;51.304;6.866;2024-01-07T06:53:36;1.30;99.90
25128;DHT22;13107;51.304;6.866;2024-01-07T06:57:38;1.20;99.90
25128;DHT22;13107;51.304;6.866;2024-01-07T07:01:39;1.20;99.90
25128;DHT22;13107;51.304;6.866;2024-01-07T07:05:41;1.20;99.90
25128;DHT22;13107;51.304;6.866;2024-01-07T07:09:43;1.10;99.90
25128;DHT22;13107;51.304;6.866;2024-01-07T07:13:45;1.10;99.90
25128;DHT22;13107;51.304;6.866;2024-01-07T07:17:46;1.20;99.90
25128;DHT22;13107;51.304;6.866;2024-01-07T07:21:48;1.20;99.90
25128;DHT22;13107;51.304;6.866;2024-01-07T07:25:50;1.10;99.90
25128;DHT22;13107;51.304;6.866;2024-01-07T07:29:52;1.10;99.90
25128;DHT22;13107;51.304;6.866;2024-01-07T07:33:54;0.90;99.90
25128;DHT22;13107;51.304;6.866;2024-01-07T07:37:55;0.90;99.90
25128;DHT22;13107;51.304;6.866;2024-01-07T07:41:57;1.00;99.90
25128;DHT22;13107;51.304;6.866;2024-01-07T07:45:59;0.90;99.90
25128;DHT22;13107;51.304;6.866;2024-01-07T07:50:03;0.90;99.90
25128;DHT22;13107;51.304;6.866;2024-01-07T07:54:05;0.80;99.90
25128;DHT22;13107;51.304;6.866;2024-01-07T07:58:07;0.90;99.90
25128;DHT22;13107;51.304;6.866;2024-01-07T08:02:09;0.90;99.90
25128;DHT22;13107;51.304;6.866;2024-01-07T08:06:11;0.90;99.90
25128;DHT22;13107;51.304;6.866;2024-01-07T08:10:13;0.90;99.90
25128;DHT22;13107;51.304;6.866;2024-01-07T08:14:15;1.00;99.90
25128;DHT22;13107;51.304;6.866;2024-01-07T08:18:17;0.80;99.90
25128;DHT22;13107;51.304;6.866;2024-01-07T08:22:19;0.80;99.90
25128;DHT22;13107;51.304;6.866;2024-01-07T08:26:21;0.90;99.90
25128;DHT22;13107;51.304;6.866;2024-01-07T08:30:23;0.80;99.90
25128;DHT22;13107;51.304;6.866;2024-01-07T08:34:25;0.90;99.90
25128;DHT22;13107;51.304;6.866;2024-01-07T08:38:28;0.90;99.90
25128;DHT22;13107;51.304;6.866;2024-01-07T08:42:30;0.80;99.90
25128;DHT22;13107;51.304;6.866;2024-01-07T08:46:32;0.90;99.90
25128;DHT22;13107;51.304;6.866;2024-01-07T08:50:33;0.90;99.90
25128;DHT22;13107;51.304;6.866;2024-01-07T08:54:35;0.80;99.90
25128;DHT22;13107;51.304;6.866;2024-01-07T08:58:37;0.70;99.90
25128;DHT22;13107;51.304;6.866;2024-01-07T09:02:39;0.80;99.90
25128;DHT22;13107;51.304;6.866;2024-01-07T09:06:44;0.80;99.90
25128;DHT22;13107;51.304;6.866;2024-01-07T09:10:46;0.90;99.90
25128;DHT22;13107;51.304;6.866;2024-01-07T09:14:48;0.90;99.90
25128;DHT22;13107;51.304;6.866;2024-01-07T09:18:50;0.90;99.90
25128;DHT22;13107;51.304;6.866;2024-01-07T09:22:52;0.70;99.90
25128;DHT22;13107;51.304;6.866;2024-01-07T09:26:54;0.80;99.90
25128;DHT22;13107;51.304;6.866;2024-01-07T09:30:58;0.80;99.90
25128;DHT22;13107;51.304;6.866;2024-01-07T09:35:00;0.80;99.90
25128;DHT22;13107;51.304;6.866;2024-01-07T09:39:02;0.70;99.90
25128;DHT22;13107;51.304;6.866;2024-01-07T09:43:06;0.70;99.90
25128;DHT22;13107;51.304;6.866;2024-01-07T09:47:13;0.70;99.90
25128;DHT22;13107;51.304;6.866;2024-01-07T09:51:15;0.70;99.90
25128;DHT22;13107;51.304;6.866;2024-01-07T09:55:26;0.70;99.90
25128;DHT22;13107;51.304;6.866;2024-01-07T09:59:30;0.90;99.90
25128;DHT22;13107;51.304;6.866;2024-01-07T10:03:32;0.70;99.90
25128;DHT22;13107;51.304;6.866;2024-01-07T10:07:34;0.70;99.90
25128;DHT22;13107;51.304;6.866;2024-01-07T10:11:36;0.90;99.90
25128;DHT22;13107;51.304;6.866;2024-01-07T10:15:38;0.90;99.90
25128;DHT22;13107;51.304;6.866;2024-01-07T10:19:39;0.80;99.90
25128;DHT22;13107;51.304;6.866;2024-01-07T10:23:42;0.80;99.90
25128;DHT22;13107;51.304;6.866;2024-01-07T10:27:44;0.70;99.90
25128;DHT22;13107;51.304;6.866;2024-01-07T10:31:46;0.60;99.90
25128;DHT22;13107;51.304;6.866;2024-01-07T10:36:02;0.60;99.90
25128;DHT22;13107;51.304;6.866;2024-01-07T10:40:08;0.70;99.90
25128;DHT22;13107;51.304;6.866;2024-01-07T10:44:12;0.70;99.90
25128;DHT22;13107;51.304;6.866;2024-01-07T10:48:17;0.80;99.90
25128;DHT22;13107;51.304;6.866;2024-01-07T10:52:20;0.80;99.90
25128;DHT22;13107;51.304;6.866;2024-01-07T10:56:23;0.80;99.90
25128;DHT22;13107;51.304;6.866;2024-01-07T11:00:26;0.90;99.90
25128;DHT22;13107;51.304;6.866;2024-01-07T11:04:41;0.80;99.90
25128;DHT22;13107;51.304;6.866;2024-01-07T11:13:37;0.70;99.90
25128;DHT22;13107;51.304;6.866;2024-01-07T11:17:41;0.60;99.90
25128;DHT22;13107;51.304;6.866;2024-01-07T11:21:47;0.60;99.90
25128;DHT22;13107;51.304;6.866;2024-01-07T11:25:49;0.70;99.90
25128;DHT22;13107;51.304;6.866;2024-01-07T11:30:01;0.70;99.90
25128;DHT22;13107;51.304;6.866;2024-01-07T11:34:03;0.60;99.90
25128;DHT22;13107;51.304;6.866;2024-01-07T11:38:05;0.70;99.90
25128;DHT22;13107;51.304;6.866;2024-01-07T11:42:07;0.70;99.90
25128;DHT22;13107;51.304;6.866;2024-01-07T11:46:08;0.60;99.90
25128;DHT22;13107;51.304;6.866;2024-01-07T11:50:10;0.60;99.90
25128;DHT22;13107;51.304;6.866;2024-01-07T11:54:12;0.70;99.90
25128;DHT22;13107;51.304;6.866;2024-01-07T11:58:14;0.70;99.90
25128;DHT22;13107;51.304;6.866;2024-01-07T12:02:16;0.70;99.90
25128;DHT22;13107;51.304;6.866;2024-01-07T12:06:19;0.70;99.90
25128;DHT22;13107;51.304;6.866;2024-01-07T12:10:21;0.70;99.90
25128;DHT22;13107;51.304;6.866;2024-01-07T12:14:23;0.80;99.90
25128;DHT22;13107;51.304;6.866;2024-01-07T12:18:26;0.60;99.90
25128;DHT22;13107;51.304;6.866;2024-01-07T12:22:28;0.50;99.90
25128;DHT22;13107;51.304;6.866;2024-01-07T12:26:30;0.50;99.90
25128;DHT22;13107;51.304;6.866;2024-01-07T12:30:32;0.70;99.90
25128;DHT22;13107;51.304;6.866;2024-01-07T12:34:34;0.50;99.90
25128;DHT22;13107;51.304;6.866;2024-01-07T12:38:37;0.40;99.90
25128;DHT22;13107;51.304;6.866;2024-01-07T12:42:40;0.30;99.90
25128;DHT22;13107;51.304;6.866;2024-01-07T12:46:46;0.20;99.90
25128;DHT22;13107;51.304;6.866;2024-01-07T12:50:50;0.20;99.90
25128;DHT22;13107;51.304;6.866;2024-01-07T12:54:51;-0.10;99.90
25128;DHT22;13107;51.304;6.866;2024-01-07T12:58:53;-0.30;99.90
25128;DHT22;13107;51.304;6.866;2024-01-07T13:02:55;-0.20;99.90
25128;DHT22;13107;51.304;6.866;2024-01-07T13:07:01;-0.20;99.90
25128;DHT22;13107;51.304;6.866;2024-01-07T13:11:04;-0.20;99.90
25128;DHT22;13107;51.304;6.866;2024-01-07T13:15:06;0.00;99.90
25128;DHT22;13107;51.304;6.866;2024-01-07T13:19:07;-0.10;99.90
25128;DHT22;13107;51.304;6.866;2024-01-07T13:23:12;-0.20;99.90
25128;DHT22;13107;51.304;6.866;2024-01-07T13:27:14;-0.10;99.90
25128;DHT22;13107;51.304;6.866;2024-01-07T13:31:16;-0.20;99.90
25128;DHT22;13107;51.304;6.866;2024-01-07T13:35:18;-0.30;99.90
25128;DHT22;13107;51.304;6.866;2024-01-07T13:39:20;-0.20;99.90
25128;DHT22;13107;51.304;6.866;2024-01-07T13:43:22;-0.30;99.90
25128;DHT22;13107;51.304;6.866;2024-01-07T13:47:27;-0.30;99.90
25128;DHT22;13107;51.304;6.866;2024-01-07T13:51:29;-0.30;99.90
25128;DHT22;13107;51.304;6.866;2024-01-07T13:55:31;-0.20;99.90
25128;DHT22;13107;51.304;6.866;2024-01-07T13:59:33;-0.20;99.90
25128;DHT22;13107;51.304;6.866;2024-01-07T14:03:34;-0.20;99.90
25128;DHT22;13107;51.304;6.866;2024-01-07T14:07:36;-0.20;99.90
25128;DHT22;13107;51.304;6.866;2024-01-07T14:11:38;-0.20;99.90
25128;DHT22;13107;51.304;6.866;2024-01-07T14:15:40;-0.10;99.90
25128;DHT22;13107;51.304;6.866;2024-01-07T14:19:41;-0.20;99.90
25128;DHT22;13107;51.304;6.866;2024-01-07T14:23:45;0.00;99.90
25128;DHT22;13107;51.304;6.866;2024-01-07T14:27:47;-0.20;99.90
25128;DHT22;13107;51.304;6.866;2024-01-07T14:31:48;-0.30;99.90
25128;DHT22;13107;51.304;6.866;2024-01-07T14:35:51;-0.30;99.90
25128;DHT22;13107;51.304;6.866;2024-01-07T14:39:53;-0.30;99.90
25128;DHT22;13107;51.304;6.866;2024-01-07T14:43:55;-0.30;99.90
25128;DHT22;13107;51.304;6.866;2024-01-07T14:47:56;-0.20;99.90
25128;DHT22;13107;51.304;6.866;2024-01-07T14:51:58;-0.20;99.90
25128;DHT22;13107;51.304;6.866;2024-01-07T14:56:00;-0.20;99.90
25128;DHT22;13107;51.304;6.866;2024-01-07T15:00:02;-0.10;99.90
25128;DHT22;13107;51.304;6.866;2024-01-07T15:04:06;-0.10;99.90
25128;DHT22;13107;51.304;6.866;2024-01-07T15:08:08;0.00;99.90
25128;DHT22;13107;51.304;6.866;2024-01-07T15:12:14;0.00;99.90
25128;DHT22;13107;51.304;6.866;2024-01-07T15:16:16;0.00;99.90
25128;DHT22;13107;51.304;6.866;2024-01-07T15:20:18;0.00;99.90
25128;DHT22;13107;51.304;6.866;2024-01-07T15:24:20;-0.10;99.90
25128;DHT22;13107;51.304;6.866;2024-01-07T15:28:22;-0.10;99.90
25128;DHT22;13107;51.304;6.866;2024-01-07T15:32:23;-0.20;99.90
25128;DHT22;13107;51.304;6.866;2024-01-07T15:36:27;-0.30;99.90
25128;DHT22;13107;51.304;6.866;2024-01-07T15:40:29;-0.30;99.90
25128;DHT22;13107;51.304;6.866;2024-01-07T15:44:32;-0.20;99.90
25128;DHT22;13107;51.304;6.866;2024-01-07T15:48:35;-0.20;99.90
25128;DHT22;13107;51.304;6.866;2024-01-07T15:52:37;-0.30;99.90
25128;DHT22;13107;51.304;6.866;2024-01-07T15:56:38;-0.20;99.90
25128;DHT22;13107;51.304;6.866;2024-01-07T16:00:40;-0.30;99.90
25128;DHT22;13107;51.304;6.866;2024-01-07T16:04:42;-0.30;99.90
25128;DHT22;13107;51.304;6.866;2024-01-07T16:08:44;-0.20;99.90
25128;DHT22;13107;51.304;6.866;2024-01-07T16:12:46;-0.30;99.90
25128;DHT22;13107;51.304;6.866;2024-01-07T16:16:47;-0.20;99.90
25128;DHT22;13107;51.304;6.866;2024-01-07T16:20:49;-0.20;99.90
25128;DHT22;13107;51.304;6.866;2024-01-07T16:24:51;-0.20;99.90
25128;DHT22;13107;51.304;6.866;2024-01-07T16:28:53;-0.30;99.90
25128;DHT22;13107;51.304;6.866;2024-01-07T16:32:54;-0.10;99.90
25128;DHT22;13107;51.304;6.866;2024-01-07T16:36:56;-0.10;99.90
25128;DHT22;13107;51.304;6.866;2024-01-07T16:40:58;-0.20;99.90
25128;DHT22;13107;51.304;6.866;2024-01-07T16:45:00;-0.10;99.90
25128;DHT22;13107;51.304;6.866;2024-01-07T16:49:03;-0.10;99.90
25128;DHT22;13107;51.304;6.866;2024-01-07T16:53:07;-0.10;99.90
25128;DHT22;13107;51.304;6.866;2024-01-07T16:57:09;0.00;99.90
25128;DHT22;13107;51.304;6.866;2024-01-07T17:01:11;0.00;99.90
25128;DHT22;13107;51.304;6.866;2024-01-07T17:05:13;-0.10;99.90
25128;DHT22;13107;51.304;6.866;2024-01-07T17:09:15;0.00;99.90
25128;DHT22;13107;51.304;6.866;2024-01-07T17:13:18;0.00;99.90
25128;DHT22;13107;51.304;6.866;2024-01-07T17:17:20;0.10;99.90
25128;DHT22;13107;51.304;6.866;2024-01-07T17:21:22;0.10;99.90
25128;DHT22;13107;51.304;6.866;2024-01-07T17:25:24;0.10;99.90
25128;DHT22;13107;51.304;6.866;2024-01-07T17:29:25;0.20;99.90
25128;DHT22;13107;51.304;6.866;2024-01-07T17:33:27;0.00;99.90
25128;DHT22;13107;51.304;6.866;2024-01-07T17:37:29;0.00;99.90
25128;DHT22;13107;51.304;6.866;2024-01-07T17:41:31;0.00;99.90
25128;DHT22;13107;51.304;6.866;2024-01-07T17:45:33;0.00;99.90
25128;DHT22;13107;51.304;6.866;2024-01-07T17:49:35;0.00;99.90
25128;DHT22;13107;51.304;6.866;2024-01-07T17:53:39;0.10;99.90
25128;DHT22;13107;51.304;6.866;2024-01-07T17:57:50;0.20;99.90
25128;DHT22;13107;51.304;6.866;2024-01-07T18:01:52;0.10;99.90
25128;DHT22;13107;51.304;6.866;2024-01-07T18:05:56;0.20;99.90
25128;DHT22;13107;51.304;6.866;2024-01-07T18:10:00;0.20;99.90
25128;DHT22;13107;51.304;6.866;2024-01-07T18:14:01;0.10;99.90
25128;DHT22;13107;51.304;6.866;2024-01-07T18:18:04;0.10;99.90
25128;DHT22;13107;51.304;6.866;2024-01-07T18:22:07;0.00;99.90
25128;DHT22;13107;51.304;6.866;2024-01-07T18:26:09;0.00;99.90
25128;DHT22;13107;51.304;6.866;2024-01-07T18:30:12;-0.10;99.90
25128;DHT22;13107;51.304;6.866;2024-01-07T18:34:14;-0.10;99.90
25128;DHT22;13107;51.304;6.866;2024-01-07T18:38:16;-0.10;99.90
25128;DHT22;13107;51.304;6.866;2024-01-07T18:42:18;-0.20;99.90
25128;DHT22;13107;51.304;6.866;2024-01-07T18:46:20;-0.20;99.90
25128;DHT22;13107;51.304;6.866;2024-01-07T18:50:22;-0.30;99.90
25128;DHT22;13107;51.304;6.866;2024-01-07T18:54:24;-0.40;99.90
25128;DHT22;13107;51.304;6.866;2024-01-07T18:58:26;-0.30;99.90
25128;DHT22;13107;51.304;6.866;2024-01-07T19:02:27;-0.50;99.90
25128;DHT22;13107;51.304;6.866;2024-01-07T19:06:29;-0.70;99.90
25128;DHT22;13107;51.304;6.866;2024-01-07T19:10:31;-0.60;99.90
25128;DHT22;13107;51.304;6.866;2024-01-07T19:14:33;-0.70;99.90
25128;DHT22;13107;51.304;6.866;2024-01-07T19:18:39;-0.80;99.90
25128;DHT22;13107;51.304;6.866;2024-01-07T19:22:41;-0.80;99.90
25128;DHT22;13107;51.304;6.866;2024-01-07T19:26:43;-0.90;99.90
25128;DHT22;13107;51.304;6.866;2024-01-07T19:30:46;-1.00;99.90
25128;DHT22;13107;51.304;6.866;2024-01-07T19:34:50;-1.00;99.90
25128;DHT22;13107;51.304;6.866;2024-01-07T19:38:53;-1.00;99.90
25128;DHT22;13107;51.304;6.866;2024-01-07T19:42:57;-1.10;99.90
25128;DHT22;13107;51.304;6.866;2024-01-07T19:46:59;-1.10;99.90
25128;DHT22;13107;51.304;6.866;2024-01-07T19:51:01;-1.10;99.90
25128;DHT22;13107;51.304;6.866;2024-01-07T19:55:03;-1.20;99.90
25128;DHT22;13107;51.304;6.866;2024-01-07T19:59:05;-1.20;99.90
25128;DHT22;13107;51.304;6.866;2024-01-07T20:03:06;-1.20;99.90
25128;DHT22;13107;51.304;6.866;2024-01-07T20:07:08;-1.20;99.90
25128;DHT22;13107;51.304;6.866;2024-01-07T20:15:21;-1.30;99.90
25128;DHT22;13107;51.304;6.866;2024-01-07T20:19:23;-1.30;99.90
25128;DHT22;13107;51.304;6.866;2024-01-07T20:23:25;-1.20;99.90
25128;DHT22;13107;51.304;6.866;2024-01-07T20:27:26;-1.30;99.90
25128;DHT22;13107;51.304;6.866;2024-01-07T20:31:28;-1.30;99.90
25128;DHT22;13107;51.304;6.866;2024-01-07T20:35:33;-1.30;99.90
25128;DHT22;13107;51.304;6.866;2024-01-07T20:39:37;-1.30;99.90
25128;DHT22;13107;51.304;6.866;2024-01-07T20:43:39;-1.30;99.90
25128;DHT22;13107;51.304;6.866;2024-01-07T20:47:41;-1.40;99.90
25128;DHT22;13107;51.304;6.866;2024-01-07T20:51:42;-1.40;99.90
25128;DHT22;13107;51.304;6.866;2024-01-07T20:55:44;-1.40;99.90
25128;DHT22;13107;51.304;6.866;2024-01-07T20:59:46;-1.50;99.90
25128;DHT22;13107;51.304;6.866;2024-01-07T21:03:48;-1.40;99.90
25128;DHT22;13107;51.304;6.866;2024-01-07T21:07:50;-1.50;99.90
25128;DHT22;13107;51.304;6.866;2024-01-07T21:11:51;-1.50;99.90
25128;DHT22;13107;51.304;6.866;2024-01-07T21:15:54;-1.50;99.90
25128;DHT22;13107;51.304;6.866;2024-01-07T21:19:56;-1.40;99.90
25128;DHT22;13107;51.304;6.866;2024-01-07T21:23:58;-1.50;99.90
25128;DHT22;13107;51.304;6.866;2024-01-07T21:28:00;-1.50;99.90
25128;DHT22;13107;51.304;6.866;2024-01-07T21:32:02;-1.40;99.90
25128;DHT22;13107;51.304;6.866;2024-01-07T21:36:04;-1.40;99.90
25128;DHT22;13107;51.304;6.866;2024-01-07T21:40:07;-1.40;99.90
25128;DHT22;13107;51.304;6.866;2024-01-07T21:44:09;-1.40;99.90
25128;DHT22;13107;51.304;6.866;2024-01-07T21:48:11;-1.50;99.90
25128;DHT22;13107;51.304;6.866;2024-01-07T21:52:14;-1.60;99.90
25128;DHT22;13107;51.304;6.866;2024-01-07T21:56:15;-1.60;99.90
25128;DHT22;13107;51.304;6.866;2024-01-07T22:00:17;-1.60;99.90
25128;DHT22;13107;51.304;6.866;2024-01-07T22:04:19;-1.70;99.90
25128;DHT22;13107;51.304;6.866;2024-01-07T22:08:21;-1.60;99.90
25128;DHT22;13107;51.304;6.866;2024-01-07T22:12:23;-1.50;99.90
25128;DHT22;13107;51.304;6.866;2024-01-07T22:16:24;-1.40;99.90
25128;DHT22;13107;51.304;6.866;2024-01-07T22:20:26;-1.30;99.90
25128;DHT22;13107;51.304;6.866;2024-01-07T22:24:28;-1.20;99.90
25128;DHT22;13107;51.304;6.866;2024-01-07T22:28:30;-1.30;99.90
25128;DHT22;13107;51.304;6.866;2024-01-07T22:32:31;-1.20;99.90
25128;DHT22;13107;51.304;6.866;2024-01-07T22:36:33;-1.10;99.90
25128;DHT22;13107;51.304;6.866;2024-01-07T22:40:35;-1.10;99.90
25128;DHT22;13107;51.304;6.866;2024-01-07T22:44:37;-1.10;99.90
25128;DHT22;13107;51.304;6.866;2024-01-07T22:48:39;-1.10;99.90
25128;DHT22;13107;51.304;6.866;2024-01-07T22:52:42;-1.00;99.90
25128;DHT22;13107;51.304;6.866;2024-01-07T22:56:44;-1.10;99.90
25128;DHT22;13107;51.304;6.866;2024-01-07T23:00:47;-1.10;99.90
25128;DHT22;13107;51.304;6.866;2024-01-07T23:04:50;-1.10;99.90
25128;DHT22;13107;51.304;6.866;2024-01-07T23:08:51;-1.10;99.90
25128;DHT22;13107;51.304;6.866;2024-01-07T23:12:53;-1.00;99.90
25128;DHT22;13107;51.304;6.866;2024-01-07T23:16:55;-1.00;99.90
25128;DHT22;13107;51.304;6.866;2024-01-07T23:20:57;-1.00;99.90
25128;DHT22;13107;51.304;6.866;2024-01-07T23:24:59;-1.00;99.90
25128;DHT22;13107;51.304;6.866;2024-01-07T23:29:01;-1.10;99.90
25128;DHT22;13107;51.304;6.866;2024-01-07T23:33:04;-1.10;99.90
25128;DHT22;13107;51.304;6.866;2024-01-07T23:37:06;-1.20;99.90
25128;DHT22;13107;51.304;6.866;2024-01-07T23:41:08;-1.20;99.90
25128;DHT22;13107;51.304;6.866;2024-01-07T23:45:10;-1.20;99.90
25128;DHT22;13107;51.304;6.866;2024-01-07T23:49:11;-1.20;99.90
25128;DHT22;13107;51.304;6.866;2024-01-07T23:53:13;-1.10;99.90
25128;DHT22;13107;51.304;6.866;2024-01-07T23:57:15;-1.20;99.90
